Templeton, Massachusetts
Current Conditions -  °F | °C
As of 5:52 AM on Friday 24 Oct 2014 (Local Time) from KORE Reporting Station
Light Rain Light Rain  
Wind Chill: 42°   Ceiling: 1100
Heat Index: 46°   Visibility: 8mi
Dew Point: 44°   Wind: 8mph
Humidity: 93%   Direction: 320°NW
Pressure: 29.73"   Gusts: NA
Location:  42.56°N, 72.07°W
Report Text: KORE 240952Z AUTO 32007KT 8SM -RA OVC011 08/07 A2973 RMK AO2 SLP071 P0005 T00780067
Loading
Personal Weather Stations






























Interactive Weather Map
Tropical Storm Tracking
New forecast layout! Learn more

10-Day Weather Forecast

Advertisements
Track Severe Weather on mobile